sensor_id;sensor_type;location;lat;lon;timestamp;temperature;humidity
9410;DHT22;4744;52.576;13.568;2023-01-16T00:01:43;5.40;1.00
9410;DHT22;4744;52.576;13.568;2023-01-16T00:04:10;5.40;1.00
9410;DHT22;4744;52.576;13.568;2023-01-16T00:06:37;5.40;1.00
9410;DHT22;4744;52.576;13.568;2023-01-16T00:09:06;5.40;1.00
9410;DHT22;4744;52.576;13.568;2023-01-16T00:11:34;5.40;1.00
9410;DHT22;4744;52.576;13.568;2023-01-16T00:14:01;5.50;1.00
9410;DHT22;4744;52.576;13.568;2023-01-16T00:16:29;5.50;1.00
9410;DHT22;4744;52.576;13.568;2023-01-16T00:18:56;5.50;1.00
9410;DHT22;4744;52.576;13.568;2023-01-16T00:21:24;5.50;1.00
9410;DHT22;4744;52.576;13.568;2023-01-16T00:23:52;5.60;1.00
9410;DHT22;4744;52.576;13.568;2023-01-16T00:26:19;5.60;1.00
9410;DHT22;4744;52.576;13.568;2023-01-16T00:28:48;5.60;1.00
9410;DHT22;4744;52.576;13.568;2023-01-16T00:31:15;5.60;1.00
9410;DHT22;4744;52.576;13.568;2023-01-16T00:33:42;5.60;1.00
9410;DHT22;4744;52.576;13.568;2023-01-16T00:36:09;5.60;1.00
9410;DHT22;4744;52.576;13.568;2023-01-16T00:38:36;5.70;1.00
9410;DHT22;4744;52.576;13.568;2023-01-16T00:41:04;5.70;1.00
9410;DHT22;4744;52.576;13.568;2023-01-16T00:43:32;5.70;1.00
9410;DHT22;4744;52.576;13.568;2023-01-16T00:46:00;5.70;1.00
9410;DHT22;4744;52.576;13.568;2023-01-16T00:48:27;5.60;1.00
9410;DHT22;4744;52.576;13.568;2023-01-16T00:50:54;5.70;1.00
9410;DHT22;4744;52.576;13.568;2023-01-16T00:53:21;5.70;1.00
9410;DHT22;4744;52.576;13.568;2023-01-16T00:55:50;5.60;1.00
9410;DHT22;4744;52.576;13.568;2023-01-16T00:58:17;5.60;1.00
9410;DHT22;4744;52.576;13.568;2023-01-16T01:00:44;5.60;1.00
9410;DHT22;4744;52.576;13.568;2023-01-16T01:03:12;5.60;1.00
9410;DHT22;4744;52.576;13.568;2023-01-16T01:05:39;5.60;1.00
9410;DHT22;4744;52.576;13.568;2023-01-16T01:08:06;5.60;1.00
9410;DHT22;4744;52.576;13.568;2023-01-16T01:10:36;5.60;1.00
9410;DHT22;4744;52.576;13.568;2023-01-16T01:13:03;5.60;1.00
9410;DHT22;4744;52.576;13.568;2023-01-16T01:15:30;5.60;1.00
9410;DHT22;4744;52.576;13.568;2023-01-16T01:17:57;5.60;1.00
9410;DHT22;4744;52.576;13.568;2023-01-16T01:20:25;5.60;1.00
9410;DHT22;4744;52.576;13.568;2023-01-16T01:22:52;5.60;1.00
9410;DHT22;4744;52.576;13.568;2023-01-16T01:25:19;5.50;1.00
9410;DHT22;4744;52.576;13.568;2023-01-16T01:27:46;5.50;1.00
9410;DHT22;4744;52.576;13.568;2023-01-16T01:30:13;5.50;1.00
9410;DHT22;4744;52.576;13.568;2023-01-16T01:32:40;5.40;1.00
9410;DHT22;4744;52.576;13.568;2023-01-16T01:35:08;5.40;1.00
9410;DHT22;4744;52.576;13.568;2023-01-16T01:37:36;5.40;1.00
9410;DHT22;4744;52.576;13.568;2023-01-16T01:40:04;5.40;1.00
9410;DHT22;4744;52.576;13.568;2023-01-16T01:42:36;5.30;1.00
9410;DHT22;4744;52.576;13.568;2023-01-16T01:45:15;5.30;1.00
9410;DHT22;4744;52.576;13.568;2023-01-16T01:47:47;5.20;1.00
9410;DHT22;4744;52.576;13.568;2023-01-16T01:50:22;5.20;1.00
9410;DHT22;4744;52.576;13.568;2023-01-16T01:52:52;5.20;1.00
9410;DHT22;4744;52.576;13.568;2023-01-16T01:55:20;5.10;1.00
9410;DHT22;4744;52.576;13.568;2023-01-16T01:57:50;5.10;1.00
9410;DHT22;4744;52.576;13.568;2023-01-16T02:00:23;5.00;1.00
9410;DHT22;4744;52.576;13.568;2023-01-16T02:02:53;5.00;1.00
9410;DHT22;4744;52.576;13.568;2023-01-16T02:05:25;4.90;1.00
9410;DHT22;4744;52.576;13.568;2023-01-16T02:07:57;4.90;1.00
9410;DHT22;4744;52.576;13.568;2023-01-16T02:10:29;4.90;1.00
9410;DHT22;4744;52.576;13.568;2023-01-16T02:13:00;4.90;1.00
9410;DHT22;4744;52.576;13.568;2023-01-16T02:15:28;4.90;1.00
9410;DHT22;4744;52.576;13.568;2023-01-16T02:17:55;4.90;1.00
9410;DHT22;4744;52.576;13.568;2023-01-16T02:20:52;4.90;1.00
9410;DHT22;4744;52.576;13.568;2023-01-16T02:32:39;4.90;1.00
9410;DHT22;4744;52.576;13.568;2023-01-16T02:35:26;4.90;1.00
9410;DHT22;4744;52.576;13.568;2023-01-16T02:37:55;4.90;1.00
9410;DHT22;4744;52.576;13.568;2023-01-16T02:40:38;4.90;1.00
9410;DHT22;4744;52.576;13.568;2023-01-16T02:43:15;4.80;1.00
9410;DHT22;4744;52.576;13.568;2023-01-16T02:45:48;4.80;1.00
9410;DHT22;4744;52.576;13.568;2023-01-16T02:48:24;4.80;1.00
9410;DHT22;4744;52.576;13.568;2023-01-16T02:50:58;4.80;1.00
9410;DHT22;4744;52.576;13.568;2023-01-16T02:53:29;4.80;1.00
9410;DHT22;4744;52.576;13.568;2023-01-16T02:56:03;4.70;1.00
9410;DHT22;4744;52.576;13.568;2023-01-16T02:58:40;4.70;1.00
9410;DHT22;4744;52.576;13.568;2023-01-16T03:01:08;4.70;1.00
9410;DHT22;4744;52.576;13.568;2023-01-16T03:03:47;4.80;1.00
9410;DHT22;4744;52.576;13.568;2023-01-16T03:06:32;4.70;1.00
9410;DHT22;4744;52.576;13.568;2023-01-16T03:09:15;4.70;1.00
9410;DHT22;4744;52.576;13.568;2023-01-16T03:11:51;4.60;1.00
9410;DHT22;4744;52.576;13.568;2023-01-16T03:14:35;4.60;1.00
9410;DHT22;4744;52.576;13.568;2023-01-16T03:17:09;4.60;1.00
9410;DHT22;4744;52.576;13.568;2023-01-16T03:19:52;4.60;1.00
9410;DHT22;4744;52.576;13.568;2023-01-16T03:22:27;4.70;1.00
9410;DHT22;4744;52.576;13.568;2023-01-16T03:27:49;4.70;1.00
9410;DHT22;4744;52.576;13.568;2023-01-16T03:30:24;4.70;1.00
9410;DHT22;4744;52.576;13.568;2023-01-16T03:32:54;4.80;1.00
9410;DHT22;4744;52.576;13.568;2023-01-16T03:35:27;4.70;1.00
9410;DHT22;4744;52.576;13.568;2023-01-16T03:37:58;4.70;1.00
9410;DHT22;4744;52.576;13.568;2023-01-16T03:40:29;4.70;1.00
9410;DHT22;4744;52.576;13.568;2023-01-16T03:43:01;4.60;1.00
9410;DHT22;4744;52.576;13.568;2023-01-16T03:45:33;4.50;1.00
9410;DHT22;4744;52.576;13.568;2023-01-16T03:48:05;4.50;1.00
9410;DHT22;4744;52.576;13.568;2023-01-16T03:50:35;4.40;1.00
9410;DHT22;4744;52.576;13.568;2023-01-16T03:53:07;4.40;1.00
9410;DHT22;4744;52.576;13.568;2023-01-16T03:55:40;4.40;1.00
9410;DHT22;4744;52.576;13.568;2023-01-16T03:58:13;4.40;1.00
9410;DHT22;4744;52.576;13.568;2023-01-16T04:00:48;4.40;1.00
9410;DHT22;4744;52.576;13.568;2023-01-16T04:03:21;4.40;1.00
9410;DHT22;4744;52.576;13.568;2023-01-16T04:05:55;4.40;1.00
9410;DHT22;4744;52.576;13.568;2023-01-16T04:08:28;4.40;1.00
9410;DHT22;4744;52.576;13.568;2023-01-16T04:10:58;4.40;1.00
9410;DHT22;4744;52.576;13.568;2023-01-16T04:13:28;4.40;1.00
9410;DHT22;4744;52.576;13.568;2023-01-16T04:15:58;4.40;1.00
9410;DHT22;4744;52.576;13.568;2023-01-16T04:18:30;4.50;1.00
9410;DHT22;4744;52.576;13.568;2023-01-16T04:20:59;4.50;1.00
9410;DHT22;4744;52.576;13.568;2023-01-16T04:23:26;4.40;1.00
9410;DHT22;4744;52.576;13.568;2023-01-16T04:25:53;4.40;1.00
9410;DHT22;4744;52.576;13.568;2023-01-16T04:28:20;4.50;1.00
9410;DHT22;4744;52.576;13.568;2023-01-16T04:30:47;4.40;1.00
9410;DHT22;4744;52.576;13.568;2023-01-16T04:33:14;4.30;1.00
9410;DHT22;4744;52.576;13.568;2023-01-16T04:35:40;4.30;1.00
9410;DHT22;4744;52.576;13.568;2023-01-16T04:38:09;4.30;1.00
9410;DHT22;4744;52.576;13.568;2023-01-16T04:40:37;4.20;1.00
9410;DHT22;4744;52.576;13.568;2023-01-16T04:43:04;4.20;1.00
9410;DHT22;4744;52.576;13.568;2023-01-16T04:45:31;4.20;1.00
9410;DHT22;4744;52.576;13.568;2023-01-16T04:47:58;4.10;1.00
9410;DHT22;4744;52.576;13.568;2023-01-16T04:50:25;4.10;1.00
9410;DHT22;4744;52.576;13.568;2023-01-16T04:52:52;4.10;1.00
9410;DHT22;4744;52.576;13.568;2023-01-16T04:55:20;4.10;1.00
9410;DHT22;4744;52.576;13.568;2023-01-16T04:57:47;4.10;1.00
9410;DHT22;4744;52.576;13.568;2023-01-16T05:00:14;4.10;1.00
9410;DHT22;4744;52.576;13.568;2023-01-16T05:02:41;4.00;1.00
9410;DHT22;4744;52.576;13.568;2023-01-16T05:05:08;3.90;1.00
9410;DHT22;4744;52.576;13.568;2023-01-16T05:07:35;4.00;1.00
9410;DHT22;4744;52.576;13.568;2023-01-16T05:10:03;3.90;1.00
9410;DHT22;4744;52.576;13.568;2023-01-16T05:12:31;3.90;1.00
9410;DHT22;4744;52.576;13.568;2023-01-16T05:14:58;3.80;1.00
9410;DHT22;4744;52.576;13.568;2023-01-16T05:17:25;3.70;1.00
9410;DHT22;4744;52.576;13.568;2023-01-16T05:19:52;3.70;1.00
9410;DHT22;4744;52.576;13.568;2023-01-16T05:22:19;3.80;1.00
9410;DHT22;4744;52.576;13.568;2023-01-16T05:24:46;3.70;1.00
9410;DHT22;4744;52.576;13.568;2023-01-16T05:27:13;3.60;1.00
9410;DHT22;4744;52.576;13.568;2023-01-16T05:29:41;3.60;1.00
9410;DHT22;4744;52.576;13.568;2023-01-16T05:32:08;3.70;1.00
9410;DHT22;4744;52.576;13.568;2023-01-16T05:34:35;3.60;1.00
9410;DHT22;4744;52.576;13.568;2023-01-16T05:37:02;3.60;1.00
9410;DHT22;4744;52.576;13.568;2023-01-16T05:39:28;3.60;1.00
9410;DHT22;4744;52.576;13.568;2023-01-16T05:41:55;3.60;1.00
9410;DHT22;4744;52.576;13.568;2023-01-16T05:44:22;3.60;1.00
9410;DHT22;4744;52.576;13.568;2023-01-16T05:46:50;3.70;1.00
9410;DHT22;4744;52.576;13.568;2023-01-16T05:49:17;3.70;1.00
9410;DHT22;4744;52.576;13.568;2023-01-16T05:51:44;3.70;1.00
9410;DHT22;4744;52.576;13.568;2023-01-16T05:54:12;3.80;1.00
9410;DHT22;4744;52.576;13.568;2023-01-16T05:56:39;3.80;1.00
9410;DHT22;4744;52.576;13.568;2023-01-16T05:59:07;3.80;1.00
9410;DHT22;4744;52.576;13.568;2023-01-16T06:01:34;3.90;1.00
9410;DHT22;4744;52.576;13.568;2023-01-16T06:04:03;3.90;1.00
9410;DHT22;4744;52.576;13.568;2023-01-16T06:06:30;4.00;1.00
9410;DHT22;4744;52.576;13.568;2023-01-16T06:08:57;3.80;1.00
9410;DHT22;4744;52.576;13.568;2023-01-16T06:11:24;3.90;1.00
9410;DHT22;4744;52.576;13.568;2023-01-16T06:13:51;3.90;1.00
9410;DHT22;4744;52.576;13.568;2023-01-16T06:16:18;3.80;1.00
9410;DHT22;4744;52.576;13.568;2023-01-16T06:18:44;3.90;1.00
9410;DHT22;4744;52.576;13.568;2023-01-16T06:21:13;3.90;1.00
9410;DHT22;4744;52.576;13.568;2023-01-16T06:23:40;3.90;1.00
9410;DHT22;4744;52.576;13.568;2023-01-16T06:26:07;4.00;1.00
9410;DHT22;4744;52.576;13.568;2023-01-16T06:28:35;3.90;1.00
9410;DHT22;4744;52.576;13.568;2023-01-16T06:31:02;3.90;1.00
9410;DHT22;4744;52.576;13.568;2023-01-16T06:33:29;3.90;1.00
9410;DHT22;4744;52.576;13.568;2023-01-16T06:35:56;4.00;1.00
9410;DHT22;4744;52.576;13.568;2023-01-16T06:38:25;4.00;1.00
9410;DHT22;4744;52.576;13.568;2023-01-16T06:40:51;4.00;1.00
9410;DHT22;4744;52.576;13.568;2023-01-16T06:43:22;3.90;1.00
9410;DHT22;4744;52.576;13.568;2023-01-16T06:45:49;3.90;1.00
9410;DHT22;4744;52.576;13.568;2023-01-16T06:48:16;3.90;1.00
9410;DHT22;4744;52.576;13.568;2023-01-16T06:50:43;3.90;1.00
9410;DHT22;4744;52.576;13.568;2023-01-16T06:53:10;3.90;1.00
9410;DHT22;4744;52.576;13.568;2023-01-16T06:55:39;3.90;1.00
9410;DHT22;4744;52.576;13.568;2023-01-16T06:58:07;3.90;1.00
9410;DHT22;4744;52.576;13.568;2023-01-16T07:00:35;3.90;1.00
9410;DHT22;4744;52.576;13.568;2023-01-16T07:03:03;3.80;1.00
9410;DHT22;4744;52.576;13.568;2023-01-16T07:05:30;3.90;1.00
9410;DHT22;4744;52.576;13.568;2023-01-16T07:07:57;3.90;1.00
9410;DHT22;4744;52.576;13.568;2023-01-16T07:10:25;3.90;1.00
9410;DHT22;4744;52.576;13.568;2023-01-16T07:12:53;3.90;1.00
9410;DHT22;4744;52.576;13.568;2023-01-16T07:15:21;3.90;1.00
9410;DHT22;4744;52.576;13.568;2023-01-16T07:18:07;3.90;1.00
9410;DHT22;4744;52.576;13.568;2023-01-16T07:20:54;4.00;1.00
9410;DHT22;4744;52.576;13.568;2023-01-16T07:23:41;3.90;1.00
9410;DHT22;4744;52.576;13.568;2023-01-16T07:26:11;3.90;1.00
9410;DHT22;4744;52.576;13.568;2023-01-16T07:28:40;3.90;1.00
9410;DHT22;4744;52.576;13.568;2023-01-16T07:31:08;3.90;1.00
9410;DHT22;4744;52.576;13.568;2023-01-16T07:33:35;3.90;1.00
9410;DHT22;4744;52.576;13.568;2023-01-16T07:36:02;3.90;1.00
9410;DHT22;4744;52.576;13.568;2023-01-16T07:38:29;3.90;1.00
9410;DHT22;4744;52.576;13.568;2023-01-16T07:40:56;3.90;1.00
9410;DHT22;4744;52.576;13.568;2023-01-16T07:43:23;3.90;1.00
9410;DHT22;4744;52.576;13.568;2023-01-16T07:45:51;3.90;1.00
9410;DHT22;4744;52.576;13.568;2023-01-16T07:48:19;3.90;1.00
9410;DHT22;4744;52.576;13.568;2023-01-16T07:50:50;3.90;1.00
9410;DHT22;4744;52.576;13.568;2023-01-16T07:53:18;3.90;1.00
9410;DHT22;4744;52.576;13.568;2023-01-16T07:55:48;3.90;1.00
9410;DHT22;4744;52.576;13.568;2023-01-16T07:58:16;4.00;1.00
9410;DHT22;4744;52.576;13.568;2023-01-16T08:00:43;4.00;1.00
9410;DHT22;4744;52.576;13.568;2023-01-16T08:03:11;4.00;1.00
9410;DHT22;4744;52.576;13.568;2023-01-16T08:05:39;4.00;1.00
9410;DHT22;4744;52.576;13.568;2023-01-16T08:08:06;4.00;1.00
9410;DHT22;4744;52.576;13.568;2023-01-16T08:10:33;4.00;1.00
9410;DHT22;4744;52.576;13.568;2023-01-16T08:13:00;4.00;1.00
9410;DHT22;4744;52.576;13.568;2023-01-16T08:15:27;4.00;1.00
9410;DHT22;4744;52.576;13.568;2023-01-16T08:17:54;4.00;1.00
9410;DHT22;4744;52.576;13.568;2023-01-16T08:20:23;4.00;1.00
9410;DHT22;4744;52.576;13.568;2023-01-16T08:22:52;4.00;1.00
9410;DHT22;4744;52.576;13.568;2023-01-16T08:25:20;4.00;1.00
9410;DHT22;4744;52.576;13.568;2023-01-16T08:27:47;4.10;1.00
9410;DHT22;4744;52.576;13.568;2023-01-16T08:30:15;4.10;1.00
9410;DHT22;4744;52.576;13.568;2023-01-16T08:32:42;4.00;1.00
9410;DHT22;4744;52.576;13.568;2023-01-16T08:35:10;4.10;1.00
9410;DHT22;4744;52.576;13.568;2023-01-16T08:37:38;4.10;1.00
9410;DHT22;4744;52.576;13.568;2023-01-16T08:40:06;4.10;1.00
9410;DHT22;4744;52.576;13.568;2023-01-16T08:42:34;4.10;1.00
9410;DHT22;4744;52.576;13.568;2023-01-16T08:45:19;4.20;1.00
9410;DHT22;4744;52.576;13.568;2023-01-16T08:48:03;4.20;1.00
9410;DHT22;4744;52.576;13.568;2023-01-16T08:50:47;4.30;1.00
9410;DHT22;4744;52.576;13.568;2023-01-16T08:53:33;4.50;1.00
9410;DHT22;4744;52.576;13.568;2023-01-16T08:56:00;4.80;1.00
9410;DHT22;4744;52.576;13.568;2023-01-16T08:58:27;5.40;1.00
9410;DHT22;4744;52.576;13.568;2023-01-16T09:00:56;6.20;1.00
9410;DHT22;4744;52.576;13.568;2023-01-16T09:03:23;7.00;1.00
9410;DHT22;4744;52.576;13.568;2023-01-16T09:05:50;7.00;1.00
9410;DHT22;4744;52.576;13.568;2023-01-16T09:08:17;6.70;1.00
9410;DHT22;4744;52.576;13.568;2023-01-16T09:10:45;6.30;1.00
9410;DHT22;4744;52.576;13.568;2023-01-16T09:13:35;6.40;1.00
9410;DHT22;4744;52.576;13.568;2023-01-16T09:16:17;7.70;1.00
9410;DHT22;4744;52.576;13.568;2023-01-16T09:18:44;9.00;1.00
9410;DHT22;4744;52.576;13.568;2023-01-16T09:21:11;9.30;1.00
9410;DHT22;4744;52.576;13.568;2023-01-16T09:23:38;9.50;1.00
9410;DHT22;4744;52.576;13.568;2023-01-16T09:26:08;9.20;1.00
9410;DHT22;4744;52.576;13.568;2023-01-16T09:28:35;8.90;1.00
9410;DHT22;4744;52.576;13.568;2023-01-16T09:31:02;8.90;1.00
9410;DHT22;4744;52.576;13.568;2023-01-16T09:33:29;9.40;1.00
9410;DHT22;4744;52.576;13.568;2023-01-16T09:35:57;9.90;1.00
9410;DHT22;4744;52.576;13.568;2023-01-16T09:38:24;9.80;1.00
9410;DHT22;4744;52.576;13.568;2023-01-16T09:40:55;10.20;1.00
9410;DHT22;4744;52.576;13.568;2023-01-16T09:43:35;10.30;1.00
9410;DHT22;4744;52.576;13.568;2023-01-16T09:46:08;10.50;1.00
9410;DHT22;4744;52.576;13.568;2023-01-16T09:48:40;10.40;1.00
9410;DHT22;4744;52.576;13.568;2023-01-16T09:51:12;10.60;1.00
9410;DHT22;4744;52.576;13.568;2023-01-16T09:53:45;10.30;1.00
9410;DHT22;4744;52.576;13.568;2023-01-16T09:56:49;10.10;1.00
9410;DHT22;4744;52.576;13.568;2023-01-16T09:59:38;10.90;1.00
9410;DHT22;4744;52.576;13.568;2023-01-16T10:02:17;10.80;1.00
9410;DHT22;4744;52.576;13.568;2023-01-16T10:04:46;10.50;1.00
9410;DHT22;4744;52.576;13.568;2023-01-16T10:07:37;10.00;1.00
9410;DHT22;4744;52.576;13.568;2023-01-16T10:10:14;9.50;1.00
9410;DHT22;4744;52.576;13.568;2023-01-16T10:12:53;9.70;1.00
9410;DHT22;4744;52.576;13.568;2023-01-16T10:15:29;9.10;1.00
9410;DHT22;4744;52.576;13.568;2023-01-16T10:18:13;8.30;1.00
9410;DHT22;4744;52.576;13.568;2023-01-16T10:20:51;8.00;1.00
9410;DHT22;4744;52.576;13.568;2023-01-16T10:23:39;7.90;1.00
9410;DHT22;4744;52.576;13.568;2023-01-16T10:26:12;7.90;1.00
9410;DHT22;4744;52.576;13.568;2023-01-16T10:28:52;7.80;1.00
9410;DHT22;4744;52.576;13.568;2023-01-16T10:31:26;7.60;1.00
9410;DHT22;4744;52.576;13.568;2023-01-16T10:33:59;7.50;1.00
9410;DHT22;4744;52.576;13.568;2023-01-16T10:36:30;7.90;1.00
9410;DHT22;4744;52.576;13.568;2023-01-16T10:38:59;7.50;1.00
9410;DHT22;4744;52.576;13.568;2023-01-16T10:41:28;7.20;1.00
9410;DHT22;4744;52.576;13.568;2023-01-16T10:44:27;7.10;1.00
9410;DHT22;4744;52.576;13.568;2023-01-16T10:47:16;7.10;1.00
9410;DHT22;4744;52.576;13.568;2023-01-16T10:50:01;7.20;1.00
9410;DHT22;4744;52.576;13.568;2023-01-16T10:52:29;7.20;1.00
9410;DHT22;4744;52.576;13.568;2023-01-16T10:54:58;7.40;1.00
9410;DHT22;4744;52.576;13.568;2023-01-16T10:57:25;7.70;1.00
9410;DHT22;4744;52.576;13.568;2023-01-16T10:59:56;7.90;1.00
9410;DHT22;4744;52.576;13.568;2023-01-16T11:02:29;7.90;1.00
9410;DHT22;4744;52.576;13.568;2023-01-16T11:04:57;8.00;1.00
9410;DHT22;4744;52.576;13.568;2023-01-16T11:07:28;8.20;1.00
9410;DHT22;4744;52.576;13.568;2023-01-16T11:09:57;8.40;1.00
9410;DHT22;4744;52.576;13.568;2023-01-16T11:12:28;8.50;1.00
9410;DHT22;4744;52.576;13.568;2023-01-16T11:15:16;8.40;1.00
9410;DHT22;4744;52.576;13.568;2023-01-16T11:18:19;8.80;1.00
9410;DHT22;4744;52.576;13.568;2023-01-16T11:20:55;9.00;1.00
9410;DHT22;4744;52.576;13.568;2023-01-16T11:23:24;8.80;1.00
9410;DHT22;4744;52.576;13.568;2023-01-16T11:25:54;8.90;1.00
9410;DHT22;4744;52.576;13.568;2023-01-16T11:28:25;8.90;1.00
9410;DHT22;4744;52.576;13.568;2023-01-16T11:30:55;9.20;1.00
9410;DHT22;4744;52.576;13.568;2023-01-16T11:33:26;9.60;1.00
9410;DHT22;4744;52.576;13.568;2023-01-16T11:35:56;9.80;1.00
9410;DHT22;4744;52.576;13.568;2023-01-16T11:38:25;9.70;1.00
9410;DHT22;4744;52.576;13.568;2023-01-16T11:40:56;9.60;1.00
9410;DHT22;4744;52.576;13.568;2023-01-16T11:43:25;10.20;1.00
9410;DHT22;4744;52.576;13.568;2023-01-16T11:46:31;10.60;1.00
9410;DHT22;4744;52.576;13.568;2023-01-16T11:49:02;11.20;1.00
9410;DHT22;4744;52.576;13.568;2023-01-16T11:51:31;11.30;1.00
9410;DHT22;4744;52.576;13.568;2023-01-16T11:54:00;10.30;1.00
9410;DHT22;4744;52.576;13.568;2023-01-16T11:56:45;10.00;1.00
9410;DHT22;4744;52.576;13.568;2023-01-16T11:59:31;10.40;1.00
9410;DHT22;4744;52.576;13.568;2023-01-16T12:02:18;10.40;1.00
9410;DHT22;4744;52.576;13.568;2023-01-16T12:04:59;9.40;1.00
9410;DHT22;4744;52.576;13.568;2023-01-16T12:07:57;9.00;1.00
9410;DHT22;4744;52.576;13.568;2023-01-16T12:10:35;8.70;1.00
9410;DHT22;4744;52.576;13.568;2023-01-16T12:13:06;8.90;1.00
9410;DHT22;4744;52.576;13.568;2023-01-16T12:16:02;8.90;1.00
9410;DHT22;4744;52.576;13.568;2023-01-16T12:18:38;8.50;1.00
9410;DHT22;4744;52.576;13.568;2023-01-16T12:21:16;8.40;1.00
9410;DHT22;4744;52.576;13.568;2023-01-16T12:24:03;8.30;1.00
9410;DHT22;4744;52.576;13.568;2023-01-16T12:26:40;8.20;1.00
9410;DHT22;4744;52.576;13.568;2023-01-16T12:29:20;8.30;1.00
9410;DHT22;4744;52.576;13.568;2023-01-16T12:32:03;8.30;1.00
9410;DHT22;4744;52.576;13.568;2023-01-16T12:34:51;8.20;1.00
9410;DHT22;4744;52.576;13.568;2023-01-16T12:37:43;8.30;1.00
9410;DHT22;4744;52.576;13.568;2023-01-16T12:40:27;8.20;1.00
9410;DHT22;4744;52.576;13.568;2023-01-16T12:43:04;8.20;1.00
9410;DHT22;4744;52.576;13.568;2023-01-16T12:45:50;8.20;1.00
9410;DHT22;4744;52.576;13.568;2023-01-16T12:48:45;8.20;1.00
9410;DHT22;4744;52.576;13.568;2023-01-16T12:51:30;8.10;1.00
9410;DHT22;4744;52.576;13.568;2023-01-16T12:54:15;8.10;1.00
9410;DHT22;4744;52.576;13.568;2023-01-16T12:56:53;8.10;1.00
9410;DHT22;4744;52.576;13.568;2023-01-16T12:59:28;8.10;1.00
9410;DHT22;4744;52.576;13.568;2023-01-16T13:02:01;8.10;1.00
9410;DHT22;4744;52.576;13.568;2023-01-16T13:04:38;8.10;1.00
9410;DHT22;4744;52.576;13.568;2023-01-16T13:07:14;8.10;1.00
9410;DHT22;4744;52.576;13.568;2023-01-16T13:09:46;8.10;1.00
9410;DHT22;4744;52.576;13.568;2023-01-16T13:12:18;8.20;1.00
9410;DHT22;4744;52.576;13.568;2023-01-16T13:15:06;8.10;1.00
9410;DHT22;4744;52.576;13.568;2023-01-16T13:17:42;8.10;1.00
9410;DHT22;4744;52.576;13.568;2023-01-16T13:20:12;8.00;1.00
9410;DHT22;4744;52.576;13.568;2023-01-16T13:22:45;8.00;1.00
9410;DHT22;4744;52.576;13.568;2023-01-16T13:25:20;8.00;1.00
9410;DHT22;4744;52.576;13.568;2023-01-16T13:27:52;8.00;1.00
9410;DHT22;4744;52.576;13.568;2023-01-16T13:30:21;8.00;1.00
9410;DHT22;4744;52.576;13.568;2023-01-16T13:32:51;7.90;1.00
9410;DHT22;4744;52.576;13.568;2023-01-16T13:35:22;7.80;1.00
9410;DHT22;4744;52.576;13.568;2023-01-16T13:38:23;7.80;1.00
9410;DHT22;4744;52.576;13.568;2023-01-16T13:41:18;7.70;1.00
9410;DHT22;4744;52.576;13.568;2023-01-16T13:43:53;7.60;1.00
9410;DHT22;4744;52.576;13.568;2023-01-16T13:46:39;7.60;1.00
9410;DHT22;4744;52.576;13.568;2023-01-16T13:49:11;7.50;1.00
9410;DHT22;4744;52.576;13.568;2023-01-16T13:51:42;7.40;1.00
9410;DHT22;4744;52.576;13.568;2023-01-16T13:54:14;7.50;1.00
9410;DHT22;4744;52.576;13.568;2023-01-16T13:56:43;7.40;1.00
9410;DHT22;4744;52.576;13.568;2023-01-16T13:59:31;7.40;1.00
9410;DHT22;4744;52.576;13.568;2023-01-16T14:02:00;7.40;1.00
9410;DHT22;4744;52.576;13.568;2023-01-16T14:04:31;7.40;1.00
9410;DHT22;4744;52.576;13.568;2023-01-16T14:09:32;7.30;1.00
9410;DHT22;4744;52.576;13.568;2023-01-16T14:12:02;7.20;1.00
9410;DHT22;4744;52.576;13.568;2023-01-16T14:14:49;7.20;1.00
9410;DHT22;4744;52.576;13.568;2023-01-16T14:20:42;7.20;1.00
9410;DHT22;4744;52.576;13.568;2023-01-16T14:23:29;7.10;1.00
9410;DHT22;4744;52.576;13.568;2023-01-16T14:26:17;7.00;1.00
9410;DHT22;4744;52.576;13.568;2023-01-16T14:28:48;7.00;1.00
9410;DHT22;4744;52.576;13.568;2023-01-16T14:31:23;6.90;1.00
9410;DHT22;4744;52.576;13.568;2023-01-16T14:33:54;6.80;1.00
9410;DHT22;4744;52.576;13.568;2023-01-16T14:36:24;6.80;1.00
9410;DHT22;4744;52.576;13.568;2023-01-16T14:38:52;6.80;1.00
9410;DHT22;4744;52.576;13.568;2023-01-16T14:41:25;6.80;1.00
9410;DHT22;4744;52.576;13.568;2023-01-16T14:44:16;6.70;1.00
9410;DHT22;4744;52.576;13.568;2023-01-16T14:47:22;6.70;1.00
9410;DHT22;4744;52.576;13.568;2023-01-16T14:50:09;6.60;1.00
9410;DHT22;4744;52.576;13.568;2023-01-16T14:53:18;6.60;1.00
9410;DHT22;4744;52.576;13.568;2023-01-16T14:56:06;6.60;1.00
9410;DHT22;4744;52.576;13.568;2023-01-16T14:58:41;6.60;1.00
9410;DHT22;4744;52.576;13.568;2023-01-16T15:01:17;6.60;1.00
9410;DHT22;4744;52.576;13.568;2023-01-16T15:04:05;6.60;1.00
9410;DHT22;4744;52.576;13.568;2023-01-16T15:06:37;6.50;1.00
9410;DHT22;4744;52.576;13.568;2023-01-16T15:09:05;6.40;1.00
9410;DHT22;4744;52.576;13.568;2023-01-16T15:11:43;6.40;1.00
9410;DHT22;4744;52.576;13.568;2023-01-16T15:14:13;6.40;1.00
9410;DHT22;4744;52.576;13.568;2023-01-16T15:17:01;6.40;1.00
9410;DHT22;4744;52.576;13.568;2023-01-16T15:19:59;6.40;1.00
9410;DHT22;4744;52.576;13.568;2023-01-16T15:22:45;6.40;1.00
9410;DHT22;4744;52.576;13.568;2023-01-16T15:25:24;6.20;1.00
9410;DHT22;4744;52.576;13.568;2023-01-16T15:28:01;6.20;1.00
9410;DHT22;4744;52.576;13.568;2023-01-16T15:30:31;6.30;1.00
9410;DHT22;4744;52.576;13.568;2023-01-16T15:33:00;6.20;1.00
9410;DHT22;4744;52.576;13.568;2023-01-16T15:35:41;6.20;1.00
9410;DHT22;4744;52.576;13.568;2023-01-16T15:38:09;6.10;1.00
9410;DHT22;4744;52.576;13.568;2023-01-16T15:40:36;6.10;1.00
9410;DHT22;4744;52.576;13.568;2023-01-16T15:43:04;6.10;1.00
9410;DHT22;4744;52.576;13.568;2023-01-16T15:45:56;6.00;1.00
9410;DHT22;4744;52.576;13.568;2023-01-16T15:48:48;6.00;1.00
9410;DHT22;4744;52.576;13.568;2023-01-16T15:51:20;5.90;1.00
9410;DHT22;4744;52.576;13.568;2023-01-16T15:53:48;5.90;1.00
9410;DHT22;4744;52.576;13.568;2023-01-16T15:56:22;5.90;1.00
9410;DHT22;4744;52.576;13.568;2023-01-16T15:58:51;5.90;1.00
9410;DHT22;4744;52.576;13.568;2023-01-16T16:01:25;5.90;1.00
9410;DHT22;4744;52.576;13.568;2023-01-16T16:03:54;5.80;1.00
9410;DHT22;4744;52.576;13.568;2023-01-16T16:06:23;5.80;1.00
9410;DHT22;4744;52.576;13.568;2023-01-16T16:08:53;5.70;1.00
9410;DHT22;4744;52.576;13.568;2023-01-16T16:11:22;5.80;1.00
9410;DHT22;4744;52.576;13.568;2023-01-16T16:14:14;5.70;1.00
9410;DHT22;4744;52.576;13.568;2023-01-16T16:17:00;5.70;1.00
9410;DHT22;4744;52.576;13.568;2023-01-16T16:19:46;5.70;1.00
9410;DHT22;4744;52.576;13.568;2023-01-16T16:22:17;5.70;1.00
9410;DHT22;4744;52.576;13.568;2023-01-16T16:25:07;5.70;1.00
9410;DHT22;4744;52.576;13.568;2023-01-16T16:27:35;5.60;1.00
9410;DHT22;4744;52.576;13.568;2023-01-16T16:30:03;5.60;1.00
9410;DHT22;4744;52.576;13.568;2023-01-16T16:32:35;5.50;1.00
9410;DHT22;4744;52.576;13.568;2023-01-16T16:35:04;5.50;1.00
9410;DHT22;4744;52.576;13.568;2023-01-16T16:37:32;5.50;1.00
9410;DHT22;4744;52.576;13.568;2023-01-16T16:40:06;5.60;1.00
9410;DHT22;4744;52.576;13.568;2023-01-16T16:42:53;5.50;1.00
9410;DHT22;4744;52.576;13.568;2023-01-16T16:45:24;5.50;1.00
9410;DHT22;4744;52.576;13.568;2023-01-16T16:48:21;5.40;1.00
9410;DHT22;4744;52.576;13.568;2023-01-16T16:51:10;5.40;1.00
9410;DHT22;4744;52.576;13.568;2023-01-16T16:53:39;5.40;1.00
9410;DHT22;4744;52.576;13.568;2023-01-16T16:56:12;5.40;1.00
9410;DHT22;4744;52.576;13.568;2023-01-16T16:58:42;5.40;1.00
9410;DHT22;4744;52.576;13.568;2023-01-16T17:01:11;5.50;1.00
9410;DHT22;4744;52.576;13.568;2023-01-16T17:03:39;5.50;1.00
9410;DHT22;4744;52.576;13.568;2023-01-16T17:06:10;5.50;1.00
9410;DHT22;4744;52.576;13.568;2023-01-16T17:08:39;5.40;1.00
9410;DHT22;4744;52.576;13.568;2023-01-16T17:11:09;5.40;1.00
9410;DHT22;4744;52.576;13.568;2023-01-16T17:13:37;5.40;1.00